Time;durP1;ratioP1;P1;durP2;ratioP2;P2;SDS_P1;SDS_P2;PMS_P1;PMS_P2;Temp;Humidity;BMP_temperature;BMP_pressure;BME280_temperature;BME280_humidity;BME280_pressure;Samples;Min_cycle;Max_cycle;Signal;HPM_P1;HPM_P2
2023/01/06 00:03:36;;;;;;;2.80;1.20;;;;;;;;;;12844043;19;20378;-65
2023/01/06 00:07:53;;;;;;;3.05;1.38;;;;;;;;;;12844275;19;20014;-66
2023/01/06 00:12:11;;;;;;;4.97;1.33;;;;;;;;;;12842803;19;20032;-66
2023/01/06 00:16:29;;;;;;;3.83;1.70;;;;;;;;;;12843052;19;20023;-66
2023/01/06 00:20:47;;;;;;;;;;;;;;;;;;12844797;19;20318;-66
2023/01/06 00:25:05;;;;;;;3.70;1.63;;;;;;;;;;12841494;19;19984;-66
2023/01/06 00:29:22;;;;;;;5.82;2.58;;;;;;;;;;12842676;19;20029;-66
2023/01/06 00:33:41;;;;;;;12.25;3.92;;;;;;;;;;12842448;19;20410;-66
2023/01/06 00:37:58;;;;;;;4.97;2.30;;;;;;;;;;12840633;19;20334;-66
2023/01/06 00:42:16;;;;;;;3.88;2.03;;;;;;;;;;12840967;19;20482;-68
2023/01/06 00:46:34;;;;;;;3.92;1.38;;;;;;;;;;12841425;19;20331;-66
2023/01/06 00:51:00;;;;;;;4.20;1.00;;;;;;;;;;12841628;19;20497;-66
2023/01/06 00:55:17;;;;;;;6.32;1.70;;;;;;;;;;12840844;19;20366;-66
2023/01/06 00:59:35;;;;;;;1.93;1.20;;;;;;;;;;12841034;19;20048;-66
2023/01/06 01:03:52;;;;;;;3.53;1.55;;;;;;;;;;12841840;19;20510;-66
2023/01/06 01:08:13;;;;;;;4.13;1.50;;;;;;;;;;12771435;19;20357;-68
2023/01/06 01:12:47;;;;;;;2.53;1.17;;;;;;;;;;12749878;19;20090;-67
2023/01/06 01:17:20;;;;;;;6.05;1.67;;;;;;;;;;12808540;19;20347;-66
2023/01/06 01:21:38;;;;;;;2.28;1.30;;;;;;;;;;12840081;19;20444;-66
2023/01/06 01:25:56;;;;;;;3.55;1.77;;;;;;;;;;12839213;19;20580;-66
2023/01/06 01:30:14;;;;;;;4.13;1.50;;;;;;;;;;12838642;19;20387;-66
2023/01/06 01:34:32;;;;;;;4.67;1.77;;;;;;;;;;12839676;19;20364;-68
2023/01/06 01:38:50;;;;;;;4.30;1.55;;;;;;;;;;12837498;19;20357;-67
2023/01/06 01:43:10;;;;;;;4.55;2.13;;;;;;;;;;12837399;19;20482;-67
2023/01/06 01:48:18;;;;;;;4.45;1.95;;;;;;;;;;12839042;19;20691;-67
2023/01/06 01:52:37;;;;;;;2.78;1.45;;;;;;;;;;12837592;19;20372;-66
2023/01/06 01:57:33;;;;;;;3.92;1.60;;;;;;;;;;12834369;19;20476;-66
2023/01/06 02:01:52;;;;;;;4.57;1.52;;;;;;;;;;12837032;19;20337;-66
2023/01/06 02:06:14;;;;;;;;;;;;;;;;;;12837693;19;20440;-67
2023/01/06 02:10:33;;;;;;;1.65;1.35;;;;;;;;;;12835694;19;20287;-66
2023/01/06 02:14:50;;;;;;;6.28;1.83;;;;;;;;;;12837542;19;20363;-67
2023/01/06 02:19:11;;;;;;;4.10;1.90;;;;;;;;;;12835749;19;20480;-66
2023/01/06 02:24:03;;;;;;;5.15;1.88;;;;;;;;;;12836304;19;20456;-68
2023/01/06 02:28:33;;;;;;;4.05;1.80;;;;;;;;;;12834274;19;21567;-67
2023/01/06 02:33:06;;;;;;;3.42;1.40;;;;;;;;;;12836429;19;20011;-66
2023/01/06 02:37:39;;;;;;;2.05;1.13;;;;;;;;;;12834967;19;20354;-66
2023/01/06 02:42:23;;;;;;;3.10;1.50;;;;;;;;;;12834070;19;20456;-66
2023/01/06 02:47:25;;;;;;;1.60;1.40;;;;;;;;;;12835352;19;20028;-66
2023/01/06 02:52:10;;;;;;;3.97;1.95;;;;;;;;;;12835450;19;20505;-66
2023/01/06 02:56:33;;;;;;;4.15;1.95;;;;;;;;;;12834142;19;20075;-66
2023/01/06 03:01:03;;;;;;;2.47;1.63;;;;;;;;;;12808071;19;20027;-66
2023/01/06 03:05:23;;;;;;;5.05;2.80;;;;;;;;;;12832948;19;20509;-66
2023/01/06 03:09:41;;;;;;;4.20;2.08;;;;;;;;;;12838188;19;20421;-66
2023/01/06 03:14:13;;;;;;;3.47;1.70;;;;;;;;;;12847254;19;20909;-67
2023/01/06 03:18:32;;;;;;;8.07;2.38;;;;;;;;;;12844385;19;20082;-66
2023/01/06 03:22:50;;;;;;;7.55;2.63;;;;;;;;;;12833531;19;120040;-66
2023/01/06 03:27:08;;;;;;;6.10;3.13;;;;;;;;;;12849779;19;20068;-65
2023/01/06 03:32:02;;;;;;;4.95;2.28;;;;;;;;;;12846453;19;20465;-67
2023/01/06 03:37:01;;;;;;;6.32;2.13;;;;;;;;;;12842421;19;20010;-66
2023/01/06 03:46:28;;;;;;;3.28;1.88;;;;;;;;;;12844393;19;20375;-67
2023/01/06 03:51:00;;;;;;;4.07;2.03;;;;;;;;;;12842862;19;20462;-66
2023/01/06 03:55:22;;;;;;;5.18;2.28;;;;;;;;;;12845343;19;20313;-66
2023/01/06 03:59:46;;;;;;;4.03;2.03;;;;;;;;;;12842655;19;20497;-67
2023/01/06 04:04:03;;;;;;;4.55;2.30;;;;;;;;;;12843194;19;20025;-66
2023/01/06 04:08:21;;;;;;;6.50;2.30;;;;;;;;;;12844496;19;20371;-68
2023/01/06 04:12:39;;;;;;;4.55;2.33;;;;;;;;;;12843663;19;20369;-66
2023/01/06 04:16:56;;;;;;;4.72;1.73;;;;;;;;;;12843949;19;20333;-66
2023/01/06 04:21:14;;;;;;;3.88;2.08;;;;;;;;;;12842388;19;20468;-66
2023/01/06 04:25:32;;;;;;;1.83;1.52;;;;;;;;;;12844693;19;20345;-65
2023/01/06 04:29:50;;;;;;;1.87;1.40;;;;;;;;;;12845358;19;20375;-66
2023/01/06 04:34:07;;;;;;;3.30;1.90;;;;;;;;;;12840553;19;20448;-66
2023/01/06 04:38:25;;;;;;;5.53;2.90;;;;;;;;;;12842439;19;20452;-66
2023/01/06 04:47:19;;;;;;;4.15;1.95;;;;;;;;;;12841490;19;20344;-66
2023/01/06 04:51:36;;;;;;;3.67;1.75;;;;;;;;;;12840746;19;20501;-66
2023/01/06 04:55:54;;;;;;;4.33;2.00;;;;;;;;;;12840015;19;20464;-66
2023/01/06 05:00:12;;;;;;;5.00;2.03;;;;;;;;;;12841059;19;20006;-68
2023/01/06 05:04:29;;;;;;;5.80;2.50;;;;;;;;;;12840547;19;20721;-65
2023/01/06 05:09:03;;;;;;;4.72;2.13;;;;;;;;;;12840978;19;20359;-66
2023/01/06 05:13:20;;;;;;;2.90;1.95;;;;;;;;;;12840218;19;20509;-68
2023/01/06 05:17:37;;;;;;;3.58;1.70;;;;;;;;;;12841171;19;20014;-66
2023/01/06 05:21:55;;;;;;;5.40;2.30;;;;;;;;;;12840882;19;20356;-67
2023/01/06 05:26:24;;;;;;;4.32;2.03;;;;;;;;;;12839617;19;20378;-65
2023/01/06 05:30:41;;;;;;;4.07;2.10;;;;;;;;;;12840271;19;20437;-66
2023/01/06 05:34:58;;;;;;;4.78;2.47;;;;;;;;;;12835899;19;20310;-65
2023/01/06 05:39:17;;;;;;;2.53;1.57;;;;;;;;;;12839356;19;20362;-66
2023/01/06 05:43:36;;;;;;;4.15;2.00;;;;;;;;;;12838987;19;20432;-66
2023/01/06 05:47:54;;;;;;;4.28;1.73;;;;;;;;;;12838173;19;20007;-66
2023/01/06 05:52:11;;;;;;;4.38;1.63;;;;;;;;;;12838690;19;20090;-66
2023/01/06 05:56:29;;;;;;;3.97;2.00;;;;;;;;;;12837758;19;20460;-66
2023/01/06 06:00:46;;;;;;;3.88;1.95;;;;;;;;;;12838096;19;20011;-65
2023/01/06 06:05:04;;;;;;;5.95;2.10;;;;;;;;;;12836322;19;20336;-65
2023/01/06 06:09:21;;;;;;;3.67;1.95;;;;;;;;;;12838110;19;20496;-65
2023/01/06 06:13:59;;;;;;;3.93;1.90;;;;;;;;;;12837797;19;20452;-66
2023/01/06 06:18:17;;;;;;;4.13;1.80;;;;;;;;;;12836923;19;20011;-65
2023/01/06 06:22:34;;;;;;;4.25;1.95;;;;;;;;;;12837769;19;20380;-65
2023/01/06 06:26:52;;;;;;;8.43;2.95;;;;;;;;;;12834766;19;20472;-65
2023/01/06 06:31:21;;;;;;;5.60;2.67;;;;;;;;;;12835977;19;20369;-67
2023/01/06 06:35:38;;;;;;;4.45;2.92;;;;;;;;;;12836652;19;20515;-65
2023/01/06 06:39:56;;;;;;;9.33;3.47;;;;;;;;;;12837490;19;20430;-66
2023/01/06 06:44:14;;;;;;;4.00;2.63;;;;;;;;;;12832730;19;20057;-68
2023/01/06 06:48:32;;;;;;;3.80;2.20;;;;;;;;;;12836196;19;20388;-65
2023/01/06 06:53:26;;;;;;;5.53;2.50;;;;;;;;;;12834600;19;20488;-67
2023/01/06 06:59:42;;;;;;;9.40;3.40;;;;;;;;;;12731185;19;20583;-65
2023/01/06 07:05:20;;;;;;;7.10;3.58;;;;;;;;;;12653390;19;2004874;-68
2023/01/06 07:09:38;;;;;;;7.47;4.28;;;;;;;;;;12834581;19;20417;-68
2023/01/06 07:13:56;;;;;;;11.65;3.28;;;;;;;;;;12835617;19;20489;-66
2023/01/06 07:18:13;;;;;;;6.13;2.77;;;;;;;;;;12833243;19;20477;-67
2023/01/06 07:22:30;;;;;;;13.65;7.13;;;;;;;;;;12834778;19;20019;-66
2023/01/06 07:26:48;;;;;;;9.07;5.22;;;;;;;;;;12834027;19;20767;-67
2023/01/06 07:31:06;;;;;;;4.22;3.10;;;;;;;;;;12832450;19;20019;-67
2023/01/06 07:35:23;;;;;;;6.43;2.73;;;;;;;;;;12834170;19;20129;-66
2023/01/06 07:39:41;;;;;;;7.53;3.42;;;;;;;;;;12833046;19;20370;-67
2023/01/06 07:43:59;;;;;;;7.07;3.97;;;;;;;;;;12831121;19;20510;-66
2023/01/06 07:48:16;;;;;;;9.70;4.93;;;;;;;;;;12833611;19;20044;-66
2023/01/06 07:52:34;;;;;;;9.27;5.30;;;;;;;;;;12832850;19;20385;-66
2023/01/06 07:56:52;;;;;;;14.82;6.63;;;;;;;;;;12837993;19;20338;-66
2023/01/06 08:01:10;;;;;;;7.70;4.20;;;;;;;;;;12844270;19;20376;-66
2023/01/06 08:05:28;;;;;;;7.78;2.95;;;;;;;;;;12843304;19;20460;-66
2023/01/06 08:09:45;;;;;;;4.05;2.65;;;;;;;;;;12844731;19;20425;-66
2023/01/06 08:14:03;;;;;;;5.07;2.63;;;;;;;;;;12843958;19;20455;-67
2023/01/06 08:18:21;;;;;;;7.93;4.03;;;;;;;;;;12843953;19;20338;-67
2023/01/06 08:22:38;;;;;;;8.30;3.80;;;;;;;;;;12843940;19;20349;-66
2023/01/06 08:26:56;;;;;;;7.05;3.33;;;;;;;;;;12844029;19;20318;-67
2023/01/06 08:31:17;;;;;;;12.30;3.45;;;;;;;;;;12842971;19;20018;-66
2023/01/06 08:35:35;;;;;;;18.70;6.95;;;;;;;;;;12843098;19;20039;-66
2023/01/06 08:39:53;;;;;;;9.73;4.37;;;;;;;;;;12845765;19;20422;-66
2023/01/06 08:44:10;;;;;;;16.13;6.45;;;;;;;;;;12838827;19;20339;-66
2023/01/06 08:48:28;;;;;;;19.48;7.60;;;;;;;;;;12842776;19;20298;-66
2023/01/06 08:52:46;;;;;;;15.10;7.82;;;;;;;;;;12841742;19;20436;-66
2023/01/06 08:57:04;;;;;;;18.55;7.40;;;;;;;;;;12840367;19;20339;-66
2023/01/06 09:01:26;;;;;;;10.07;6.87;;;;;;;;;;12842145;19;20371;-68
2023/01/06 09:05:55;;;;;;;11.02;6.55;;;;;;;;;;12842045;19;20749;-69
2023/01/06 09:10:13;;;;;;;23.98;13.10;;;;;;;;;;12838153;19;20457;-67
2023/01/06 09:14:30;;;;;;;33.83;16.83;;;;;;;;;;12840893;19;20351;-66
2023/01/06 09:18:49;;;;;;;32.57;17.37;;;;;;;;;;12840776;19;20482;-66
2023/01/06 09:23:06;;;;;;;31.70;12.80;;;;;;;;;;12839748;19;20369;-66
2023/01/06 09:27:24;;;;;;;39.80;20.33;;;;;;;;;;12843935;19;20449;-67
2023/01/06 09:31:42;;;;;;;14.30;9.23;;;;;;;;;;12843483;19;20446;-66
2023/01/06 09:36:01;;;;;;;14.63;7.17;;;;;;;;;;12840530;19;20340;-67
2023/01/06 09:40:27;;;;;;;21.30;11.73;;;;;;;;;;12837524;19;20247;-67
2023/01/06 09:45:16;;;;;;;19.80;8.38;;;;;;;;;;12837159;19;20314;-66
2023/01/06 09:49:45;;;;;;;24.80;14.23;;;;;;;;;;12838134;19;20475;-66
2023/01/06 09:54:23;;;;;;;40.97;22.02;;;;;;;;;;12836555;19;20449;-67
2023/01/06 09:59:05;;;;;;;39.38;20.00;;;;;;;;;;12837086;19;20493;-66
2023/01/06 10:03:25;;;;;;;16.90;8.38;;;;;;;;;;12842033;19;20427;-68
2023/01/06 10:08:14;;;;;;;13.30;8.35;;;;;;;;;;12836469;19;20488;-66
2023/01/06 10:12:51;;;;;;;9.88;5.80;;;;;;;;;;12833890;19;20346;-66
2023/01/06 10:17:20;;;;;;;11.68;5.45;;;;;;;;;;12836735;19;20371;-66
2023/01/06 10:22:04;;;;;;;61.37;31.93;;;;;;;;;;12833917;19;20316;-66
2023/01/06 10:26:29;;;;;;;21.77;15.18;;;;;;;;;;12835330;19;20444;-68
2023/01/06 10:30:52;;;;;;;8.45;5.60;;;;;;;;;;12835812;19;20363;-66
2023/01/06 10:35:14;;;;;;;13.82;9.18;;;;;;;;;;12834204;19;20434;-67
2023/01/06 10:39:35;;;;;;;15.98;10.00;;;;;;;;;;12835848;19;20027;-67
2023/01/06 10:43:53;;;;;;;7.53;4.75;;;;;;;;;;12835659;19;20485;-67
2023/01/06 10:48:25;;;;;;;57.42;21.40;;;;;;;;;;12835748;19;20359;-66
2023/01/06 10:52:45;;;;;;;24.98;7.90;;;;;;;;;;12836196;19;20596;-68
2023/01/06 10:57:10;;;;;;;22.38;9.45;;;;;;;;;;12835908;19;20437;-66
2023/01/06 11:01:29;;;;;;;12.88;6.28;;;;;;;;;;12834605;19;20422;-67
2023/01/06 11:05:46;;;;;;;9.02;5.63;;;;;;;;;;12833258;19;20429;-67
2023/01/06 11:10:26;;;;;;;11.65;5.55;;;;;;;;;;12835326;19;20355;-66
2023/01/06 11:14:58;;;;;;;14.52;7.13;;;;;;;;;;12832846;19;20045;-66
2023/01/06 11:19:39;;;;;;;17.67;8.75;;;;;;;;;;12831909;19;20429;-67
2023/01/06 11:24:18;;;;;;;18.30;7.85;;;;;;;;;;12833140;19;20368;-66
2023/01/06 11:28:40;;;;;;;16.23;8.38;;;;;;;;;;12832438;19;20362;-65
2023/01/06 11:32:58;;;;;;;15.10;8.40;;;;;;;;;;12843376;19;20440;-66
2023/01/06 11:37:27;;;;;;;30.57;16.63;;;;;;;;;;12845197;19;20429;-68
2023/01/06 11:41:48;;;;;;;8.27;4.85;;;;;;;;;;12845613;19;20380;-67
2023/01/06 11:46:09;;;;;;;17.08;7.25;;;;;;;;;;12843699;19;20472;-66
2023/01/06 11:50:26;;;;;;;11.95;6.47;;;;;;;;;;12847956;19;20326;-66
2023/01/06 11:54:44;;;;;;;38.37;15.47;;;;;;;;;;12845955;19;20460;-67
2023/01/06 11:59:12;;;;;;;14.85;5.95;;;;;;;;;;12846123;19;20081;-67
2023/01/06 12:03:44;;;;;;;8.27;4.32;;;;;;;;;;12843231;19;20457;-66
2023/01/06 12:08:20;;;;;;;8.43;4.68;;;;;;;;;;12843030;19;20638;-66
2023/01/06 12:12:37;;;;;;;11.23;6.82;;;;;;;;;;12843057;19;20392;-66
2023/01/06 12:17:04;;;;;;;6.87;3.33;;;;;;;;;;12842590;19;20528;-67
2023/01/06 12:21:30;;;;;;;18.45;9.20;;;;;;;;;;12841867;19;20716;-69
2023/01/06 12:25:53;;;;;;;12.65;5.38;;;;;;;;;;12842444;19;20493;-66
2023/01/06 12:30:59;;;;;;;5.20;3.10;;;;;;;;;;12841828;19;20353;-66
2023/01/06 12:35:24;;;;;;;8.27;4.13;;;;;;;;;;12840014;19;20434;-66
2023/01/06 12:39:52;;;;;;;9.18;4.72;;;;;;;;;;12843512;19;20354;-67
2023/01/06 12:45:01;;;;;;;9.35;3.85;;;;;;;;;;12841599;19;20450;-65
2023/01/06 12:49:58;;;;;;;14.23;7.15;;;;;;;;;;12840713;19;20785;-68
2023/01/06 12:54:33;;;;;;;7.63;3.60;;;;;;;;;;12841772;19;20384;-67
2023/01/06 12:59:22;;;;;;;4.60;3.00;;;;;;;;;;12839674;19;20058;-66
2023/01/06 13:04:00;;;;;;;5.10;3.00;;;;;;;;;;12842402;19;20310;-66
2023/01/06 13:08:52;;;;;;;;;;;;;;;;;;12841941;19;20480;-68
2023/01/06 13:13:48;;;;;;;13.98;6.07;;;;;;;;;;12839048;19;20314;-66
2023/01/06 13:18:31;;;;;;;14.02;6.63;;;;;;;;;;12838082;19;20010;-66
2023/01/06 13:23:19;;;;;;;10.70;5.45;;;;;;;;;;12841869;19;20453;-66
2023/01/06 13:28:04;;;;;;;5.30;2.78;;;;;;;;;;12840749;19;20039;-65
2023/01/06 13:32:59;;;;;;;4.60;2.67;;;;;;;;;;12840031;19;20388;-65
2023/01/06 13:37:51;;;;;;;5.43;3.15;;;;;;;;;;12840716;19;20363;-66
2023/01/06 13:42:16;;;;;;;9.52;3.00;;;;;;;;;;12837765;19;20117;-67
2023/01/06 13:46:34;;;;;;;6.82;4.07;;;;;;;;;;12839311;19;20464;-66
2023/01/06 13:50:52;;;;;;;17.65;10.73;;;;;;;;;;12840802;19;20016;-66
2023/01/06 13:55:32;;;;;;;17.47;6.30;;;;;;;;;;12837493;19;20426;-66
2023/01/06 14:00:12;;;;;;;17.45;6.93;;;;;;;;;;12838823;19;20364;-66
2023/01/06 14:04:38;;;;;;;10.38;5.03;;;;;;;;;;12838709;19;20286;-66
2023/01/06 14:08:58;;;;;;;7.80;3.33;;;;;;;;;;12839447;19;20433;-66
2023/01/06 14:13:31;;;;;;;10.00;4.78;;;;;;;;;;12836664;19;20461;-66
2023/01/06 14:17:49;;;;;;;24.80;10.80;;;;;;;;;;12838326;19;20366;-66
2023/01/06 14:22:20;;;;;;;18.80;8.90;;;;;;;;;;12837656;19;20494;-66
2023/01/06 14:26:58;;;;;;;29.40;11.93;;;;;;;;;;12838654;19;20351;-67
2023/01/06 14:31:25;;;;;;;23.17;8.90;;;;;;;;;;12836849;19;20374;-66
2023/01/06 14:35:45;;;;;;;21.45;12.10;;;;;;;;;;12837364;19;20433;-66
2023/01/06 14:40:04;;;;;;;11.95;7.72;;;;;;;;;;12836245;19;20473;-66
2023/01/06 14:44:43;;;;;;;15.20;5.85;;;;;;;;;;12836043;19;20520;-66
2023/01/06 14:49:06;;;;;;;12.30;5.00;;;;;;;;;;12836278;19;20720;-64
2023/01/06 14:53:37;;;;;;;8.35;4.38;;;;;;;;;;12834235;19;20474;-66
2023/01/06 14:57:55;;;;;;;11.18;4.80;;;;;;;;;;12833905;19;20396;-66
2023/01/06 15:02:15;;;;;;;11.07;4.70;;;;;;;;;;12835497;19;20356;-66
2023/01/06 15:06:33;;;;;;;18.63;9.10;;;;;;;;;;12842736;19;20428;-66
2023/01/06 15:10:50;;;;;;;35.70;16.33;;;;;;;;;;12848262;19;20133;-66
2023/01/06 15:15:26;;;;;;;28.65;12.73;;;;;;;;;;12846970;19;20345;-66
2023/01/06 15:19:47;;;;;;;17.90;10.05;;;;;;;;;;12845698;19;20421;-66
2023/01/06 15:24:16;;;;;;;15.50;7.47;;;;;;;;;;12846781;19;20422;-66
2023/01/06 15:28:34;;;;;;;11.98;7.05;;;;;;;;;;12845305;19;20366;-68
2023/01/06 15:32:53;;;;;;;12.55;5.75;;;;;;;;;;12848743;19;20485;-65
2023/01/06 15:37:24;;;;;;;9.10;3.83;;;;;;;;;;12846073;19;20347;-66
2023/01/06 15:41:42;;;;;;;11.50;5.05;;;;;;;;;;12843486;19;20429;-66
2023/01/06 15:46:10;;;;;;;13.32;5.53;;;;;;;;;;12844762;19;20127;-66
2023/01/06 15:50:30;;;;;;;7.07;4.03;;;;;;;;;;12845940;19;20011;-67
2023/01/06 15:54:49;;;;;;;13.48;5.80;;;;;;;;;;12846425;19;20339;-66
2023/01/06 15:59:13;;;;;;;20.85;9.20;;;;;;;;;;12843717;19;20323;-67
2023/01/06 16:03:31;;;;;;;21.60;8.80;;;;;;;;;;12844604;19;20464;-66
2023/01/06 16:07:49;;;;;;;25.30;9.98;;;;;;;;;;12848104;19;20322;-66
2023/01/06 16:12:20;;;;;;;10.80;5.80;;;;;;;;;;12841955;19;20577;-67
2023/01/06 16:16:39;;;;;;;24.02;9.60;;;;;;;;;;12842746;19;20010;-67
2023/01/06 16:20:59;;;;;;;22.13;8.88;;;;;;;;;;12847281;19;20517;-65
2023/01/06 16:25:20;;;;;;;21.33;9.27;;;;;;;;;;12843069;19;20475;-66
2023/01/06 16:29:38;;;;;;;64.32;24.17;;;;;;;;;;12843807;19;20469;-66
2023/01/06 16:34:12;;;;;;;43.47;16.02;;;;;;;;;;12843404;19;20470;-66
2023/01/06 16:38:30;;;;;;;32.30;12.85;;;;;;;;;;12841437;19;20366;-68
2023/01/06 16:42:48;;;;;;;31.63;13.27;;;;;;;;;;12842106;19;20378;-66
2023/01/06 16:47:07;;;;;;;;;;;;;;;;;;12841046;19;20717;-66
2023/01/06 16:51:27;;;;;;;69.47;27.20;;;;;;;;;;12841040;19;20278;-66
2023/01/06 16:55:52;;;;;;;56.17;23.30;;;;;;;;;;12842438;19;20476;-66
2023/01/06 17:00:16;;;;;;;38.65;17.27;;;;;;;;;;12841427;19;20434;-65
2023/01/06 17:04:33;;;;;;;31.02;14.35;;;;;;;;;;12841900;19;20298;-67
2023/01/06 17:08:55;;;;;;;29.40;13.43;;;;;;;;;;12841947;19;20372;-66
2023/01/06 17:13:33;;;;;;;44.97;21.10;;;;;;;;;;12840706;19;20769;-67
2023/01/06 17:17:51;;;;;;;69.68;28.08;;;;;;;;;;12843324;19;20438;-65
2023/01/06 17:22:28;;;;;;;78.78;37.47;;;;;;;;;;12838564;19;20429;-66
2023/01/06 17:27:24;;;;;;;72.95;32.60;;;;;;;;;;12845184;19;20456;-65
2023/01/06 17:31:44;;;;;;;62.92;27.85;;;;;;;;;;12839537;19;20328;-69
2023/01/06 17:36:02;;;;;;;61.60;28.23;;;;;;;;;;12838829;19;20440;-66
2023/01/06 17:40:28;;;;;;;67.65;31.13;;;;;;;;;;12837070;19;20441;-67
2023/01/06 17:44:50;;;;;;;41.13;21.73;;;;;;;;;;12837373;19;20428;-66
2023/01/06 17:49:34;;;;;;;56.22;26.88;;;;;;;;;;12839576;19;20360;-67
2023/01/06 17:58:31;;;;;;;51.13;25.42;;;;;;;;;;12841095;19;20418;-67
2023/01/06 18:03:04;;;;;;;45.45;21.15;;;;;;;;;;12838594;19;20348;-66
2023/01/06 18:07:22;;;;;;;47.00;22.23;;;;;;;;;;12837682;19;20355;-67
2023/01/06 18:11:44;;;;;;;107.10;46.77;;;;;;;;;;12837791;19;20351;-66
2023/01/06 18:16:24;;;;;;;79.88;34.28;;;;;;;;;;12839114;19;20896;-67
2023/01/06 18:20:52;;;;;;;27.90;16.00;;;;;;;;;;12837199;19;20363;-66
2023/01/06 18:25:21;;;;;;;35.72;17.67;;;;;;;;;;12835768;19;20493;-66
2023/01/06 18:29:41;;;;;;;39.72;17.17;;;;;;;;;;12837455;19;20356;-66
2023/01/06 18:34:15;;;;;;;33.38;17.25;;;;;;;;;;12837944;19;20441;-66
2023/01/06 18:38:32;;;;;;;34.22;18.60;;;;;;;;;;12835517;19;20635;-67
2023/01/06 18:42:52;;;;;;;60.70;26.87;;;;;;;;;;12835159;19;20382;-66
2023/01/06 18:47:20;;;;;;;47.45;21.83;;;;;;;;;;12835665;19;20323;-67
2023/01/06 18:51:38;;;;;;;52.10;23.20;;;;;;;;;;12836267;19;20014;-67
2023/01/06 18:56:02;;;;;;;46.95;23.02;;;;;;;;;;12836360;19;20335;-66
2023/01/06 19:00:30;;;;;;;43.40;22.52;;;;;;;;;;12834519;19;20505;-66
2023/01/06 19:04:48;;;;;;;71.30;31.90;;;;;;;;;;12836463;19;20335;-66
2023/01/06 19:09:34;;;;;;;71.13;33.17;;;;;;;;;;12835799;19;20373;-69
2023/01/06 19:13:58;;;;;;;63.28;27.00;;;;;;;;;;12787881;19;20364;-66
2023/01/06 19:18:18;;;;;;;60.03;29.33;;;;;;;;;;12833811;19;20018;-66
2023/01/06 19:22:37;;;;;;;67.68;26.65;;;;;;;;;;12833995;19;20074;-67
2023/01/06 19:26:57;;;;;;;68.13;28.08;;;;;;;;;;12830462;19;20493;-66
2023/01/06 19:31:21;;;;;;;58.78;25.55;;;;;;;;;;12836244;19;20360;-67
2023/01/06 19:35:39;;;;;;;41.03;19.83;;;;;;;;;;12834164;19;20469;-67
2023/01/06 19:39:57;;;;;;;47.88;24.65;;;;;;;;;;12832387;19;20395;-67
2023/01/06 19:44:15;;;;;;;55.13;29.70;;;;;;;;;;12832534;19;20389;-67
2023/01/06 19:48:40;;;;;;;66.37;36.37;;;;;;;;;;12833825;19;20492;-67
2023/01/06 19:52:59;;;;;;;40.10;19.08;;;;;;;;;;12840025;19;20465;-67
2023/01/06 19:57:25;;;;;;;30.73;17.55;;;;;;;;;;12845891;19;20078;-66
2023/01/06 20:01:44;;;;;;;33.63;17.20;;;;;;;;;;12844703;19;20314;-70
2023/01/06 20:06:03;;;;;;;27.40;15.43;;;;;;;;;;12843204;19;20499;-66
2023/01/06 20:10:20;;;;;;;37.38;18.73;;;;;;;;;;12844738;19;20397;-66
2023/01/06 20:14:38;;;;;;;25.17;13.82;;;;;;;;;;12845168;19;20576;-66
2023/01/06 20:18:56;;;;;;;30.90;16.23;;;;;;;;;;12844658;19;20474;-66
2023/01/06 20:23:14;;;;;;;31.85;15.95;;;;;;;;;;12843388;19;20384;-66
2023/01/06 20:27:34;;;;;;;26.75;15.48;;;;;;;;;;12844707;19;20371;-67
2023/01/06 20:31:51;;;;;;;29.48;14.85;;;;;;;;;;12842518;19;20499;-67
2023/01/06 20:36:09;;;;;;;32.50;16.88;;;;;;;;;;12842866;19;20331;-67
2023/01/06 20:40:27;;;;;;;32.05;16.55;;;;;;;;;;12841725;19;20351;-67
2023/01/06 20:44:45;;;;;;;27.13;16.80;;;;;;;;;;12842610;19;20695;-66
2023/01/06 20:49:02;;;;;;;30.23;16.35;;;;;;;;;;12842915;19;20011;-66
2023/01/06 20:53:21;;;;;;;25.88;14.55;;;;;;;;;;12842446;19;20093;-67
2023/01/06 20:57:39;;;;;;;33.07;16.70;;;;;;;;;;12843102;19;20011;-67
2023/01/06 21:01:58;;;;;;;27.17;15.73;;;;;;;;;;12841265;19;20505;-67
2023/01/06 21:06:16;;;;;;;22.00;11.25;;;;;;;;;;12841226;19;20011;-66
2023/01/06 21:10:34;;;;;;;18.73;10.68;;;;;;;;;;12840287;19;20512;-68
2023/01/06 21:14:51;;;;;;;18.70;10.38;;;;;;;;;;12842393;19;20014;-67
2023/01/06 21:19:09;;;;;;;19.00;10.93;;;;;;;;;;12840500;19;20031;-67
2023/01/06 21:23:28;;;;;;;16.15;9.05;;;;;;;;;;12840698;19;20532;-67
2023/01/06 21:27:45;;;;;;;17.40;8.75;;;;;;;;;;12840755;19;20578;-67
2023/01/06 21:32:03;;;;;;;16.13;9.40;;;;;;;;;;12839668;19;20485;-67
2023/01/06 21:36:21;;;;;;;17.70;8.57;;;;;;;;;;12839162;19;20481;-67
2023/01/06 21:40:41;;;;;;;20.58;9.23;;;;;;;;;;12840345;19;20434;-68
2023/01/06 21:44:59;;;;;;;21.45;8.98;;;;;;;;;;12840312;19;20461;-67
2023/01/06 21:49:16;;;;;;;12.32;7.32;;;;;;;;;;12839460;19;20469;-67
2023/01/06 21:53:34;;;;;;;10.37;6.57;;;;;;;;;;12839874;19;20020;-67
2023/01/06 21:57:53;;;;;;;12.23;7.47;;;;;;;;;;12837620;19;20510;-67
2023/01/06 22:02:13;;;;;;;12.60;6.43;;;;;;;;;;12837299;19;20490;-68
2023/01/06 22:06:31;;;;;;;10.95;7.20;;;;;;;;;;12838168;19;20367;-68
2023/01/06 22:10:49;;;;;;;15.65;7.78;;;;;;;;;;12839389;19;20473;-67
2023/01/06 22:15:08;;;;;;;11.10;6.35;;;;;;;;;;12835079;19;20110;-67
2023/01/06 22:19:26;;;;;;;11.88;6.38;;;;;;;;;;12835791;19;20434;-67
2023/01/06 22:23:44;;;;;;;13.13;6.55;;;;;;;;;;12838956;19;20014;-68
2023/01/06 22:28:02;;;;;;;9.70;6.63;;;;;;;;;;12838105;19;20340;-72
2023/01/06 22:32:19;;;;;;;9.77;6.28;;;;;;;;;;12836625;19;20472;-67
2023/01/06 22:36:37;;;;;;;8.67;6.33;;;;;;;;;;12837201;19;20474;-67
2023/01/06 22:40:55;;;;;;;10.85;6.93;;;;;;;;;;12836120;19;20611;-68
2023/01/06 22:45:13;;;;;;;8.38;5.82;;;;;;;;;;12837080;19;20365;-66
2023/01/06 22:49:33;;;;;;;12.45;6.32;;;;;;;;;;12836355;19;20011;-67
2023/01/06 22:53:52;;;;;;;;;;;;;;;;;;12837674;19;20501;-71
2023/01/06 22:58:09;;;;;;;14.82;6.82;;;;;;;;;;12836420;19;20331;-67
2023/01/06 23:02:26;;;;;;;13.57;7.78;;;;;;;;;;12835194;19;20302;-68
2023/01/06 23:06:44;;;;;;;10.80;6.72;;;;;;;;;;12835842;19;20434;-67
2023/01/06 23:11:17;;;;;;;9.87;6.80;;;;;;;;;;12837079;19;20493;-67
2023/01/06 23:15:34;;;;;;;10.30;6.88;;;;;;;;;;12834741;19;20564;-67
2023/01/06 23:19:52;;;;;;;10.50;6.53;;;;;;;;;;12833148;19;20400;-66
2023/01/06 23:24:11;;;;;;;12.68;7.15;;;;;;;;;;12832867;19;20450;-68
2023/01/06 23:28:28;;;;;;;10.95;6.60;;;;;;;;;;12843178;19;20305;-68
2023/01/06 23:32:46;;;;;;;12.23;7.88;;;;;;;;;;12848183;19;20306;-66
2023/01/06 23:37:03;;;;;;;11.83;6.00;;;;;;;;;;12846780;19;20340;-67
2023/01/06 23:41:25;;;;;;;13.90;6.60;;;;;;;;;;12845196;19;20437;-67
2023/01/06 23:45:43;;;;;;;12.02;6.88;;;;;;;;;;12844836;19;20431;-67
2023/01/06 23:50:00;;;;;;;12.13;6.60;;;;;;;;;;12846727;19;20367;-69
2023/01/06 23:54:17;;;;;;;12.52;7.20;;;;;;;;;;12843052;19;20477;-67
2023/01/06 23:58:37;;;;;;;14.73;6.80;;;;;;;;;;12845504;19;20386;-67
